Maxville Airport

CA-0015 · Ontario, Canada

Geldig van 1 februari 2023 19:00 tot 1 februari 2023 21:00
Tijd
woensdag
19:00
>40%
woensdag
20:00
>40%
Code
VFR
VFR
Weer
Lichte sneeuw
Onbewolkt
Lichte sneeuw
Onbewolkt
Zicht
5 mi
5 mi
Plafond
4.000 ft
4.000 ft
Wind
Var
Var
Var
Var
Snelheid
3 kt
3 kt
Windstoten
Temp/Zon

Origineel

TAF CYND 012340Z 0200/0202 VRB03KT P6SM BKN040
TEMPO 0200/0202 5SM -SN RMK NXT FCST BY 021400Z

TAF Maxville Airport

Maxville Airport is een klein vliegveld in Ontario, Canada. De ICAO code van het veld is CA-0015.

Dit rapport is opgesteld voor 1 februari 2023 18:40, lokale tijd op Ottawa / Gatineau Airport. Geldig van 1 februari 2023 19:00 tot 1 februari 2023 21:00, lokale tijd.

Verwachtingen

  • Tussen woensdag 19:00 en 21:00

    • Wind: Geen of nauwelijks wind uit variabele richting.
    • Zicht: 6 mi of meer
    • Wolken: zwaar bewolkt op 4.000 ft hoogte.
  • Tijdelijk tussen woensdag 19:00 en 21:00

    • Zicht: 5 mi
    • Weer: Lichte sneeuw

Daglichtperiode

De zon komt vandaag op om 07:18 en gaat onder om 17:07. Dit geldt voor Maxville Airport, de universele daglichtperiode kan anders zijn. Het verschil tussen de lokale tijd en UTC is -5 uur. Er is geen zomertijd op dit moment.

Wij en derden volgen je internetgedrag op onze website met cookies. Als je doorgaat, gaan we ervan uit dat je akkoord gaat met onze cookiebeleid.